createdAt,value
2022-08-26T00:02:40.626Z,100076.41
2022-08-26T00:07:43.627Z,100071.31
2022-08-26T00:12:45.345Z,100064.50
2022-08-26T00:17:48.442Z,100072.81
2022-08-26T00:22:50.031Z,100069.56
2022-08-26T00:27:52.237Z,100064.22
2022-08-26T00:32:54.954Z,100062.00
2022-08-26T00:37:57.912Z,100063.38
2022-08-26T00:43:00.791Z,100059.69
2022-08-26T00:48:03.847Z,100055.06
2022-08-26T00:53:21.484Z,100049.38
2022-08-26T00:58:28.055Z,100049.28
2022-08-26T01:03:31.383Z,100038.25
2022-08-26T01:08:33.054Z,100041.31
2022-08-26T01:13:36.496Z,100037.75
2022-08-26T01:18:43.303Z,100042.81
2022-08-26T01:23:48.552Z,100042.59
2022-08-26T01:28:52.049Z,100036.53
2022-08-26T01:34:07.265Z,100038.19
2022-08-26T01:39:11.562Z,100040.78
2022-08-26T01:44:20.545Z,100042.09
2022-08-26T01:49:23.202Z,100038.00
2022-08-26T01:54:27.814Z,100041.19
2022-08-26T01:59:29.898Z,100040.72
2022-08-26T02:04:37.402Z,100044.66
2022-08-26T02:09:41.209Z,100039.28
2022-08-26T02:14:47.164Z,100044.38
2022-08-26T02:19:51.175Z,100048.75
2022-08-26T02:24:56.461Z,100040.19
2022-08-26T02:30:22.158Z,100049.22
2022-08-26T02:35:24.194Z,100052.28
2022-08-26T02:40:30.345Z,100044.59
2022-08-26T02:45:33.350Z,100041.09
2022-08-26T02:50:35.625Z,100037.25
2022-08-26T02:55:37.344Z,100033.03
2022-08-26T03:00:39.821Z,100030.31
2022-08-26T03:05:54.946Z,100035.00
2022-08-26T03:10:56.484Z,100033.09
2022-08-26T03:15:58.142Z,100034.09
2022-08-26T03:21:07.977Z,100034.53
2022-08-26T03:26:11.025Z,100027.88
2022-08-26T03:31:12.664Z,100024.25
2022-08-26T03:36:15.356Z,100021.69
2022-08-26T03:41:18.008Z,100022.28
2022-08-26T03:46:20.599Z,100013.38
2022-08-26T03:51:22.621Z,100015.94
2022-08-26T03:56:26.208Z,100017.56
2022-08-26T04:01:28.648Z,100014.28
2022-08-26T04:06:33.307Z,100008.75
2022-08-26T04:11:37.806Z,100008.47
2022-08-26T04:16:41.943Z,100001.00
2022-08-26T04:21:46.381Z,100016.53
2022-08-26T04:26:48.784Z,100009.97
2022-08-26T04:31:50.389Z,100020.44
2022-08-26T04:36:58.066Z,100016.81
2022-08-26T04:42:00.159Z,100012.75
2022-08-26T04:47:04.688Z,100014.66
2022-08-26T04:52:06.302Z,100012.97
2022-08-26T04:57:09.330Z,100010.63
2022-08-26T05:02:11.484Z,100019.69
2022-08-26T05:07:13.075Z,100016.47
2022-08-26T05:12:14.683Z,100014.03
2022-08-26T05:17:18.008Z,100015.72
2022-08-26T05:22:20.161Z,100019.13
2022-08-26T05:27:22.065Z,100028.34
2022-08-26T05:32:23.642Z,100027.44
2022-08-26T05:37:25.328Z,100018.94
2022-08-26T05:42:27.094Z,100013.88
2022-08-26T05:47:29.959Z,100020.16
2022-08-26T05:52:33.095Z,100019.59
2022-08-26T05:57:39.938Z,100022.41
2022-08-26T06:02:43.803Z,100020.56
2022-08-26T06:08:08.699Z,100018.44
2022-08-26T06:13:12.285Z,100022.84
2022-08-26T06:18:15.581Z,100026.47
2022-08-26T06:23:36.947Z,100032.22
2022-08-26T06:28:43.664Z,100027.41
2022-08-26T06:33:47.211Z,100036.28
2022-08-26T06:38:50.187Z,100022.09
2022-08-26T06:43:52.352Z,100023.19
2022-08-26T06:48:55.059Z,100022.25
2022-08-26T06:53:59.523Z,100023.84
2022-08-26T06:59:01.741Z,100019.66
2022-08-26T07:04:10.475Z,100022.50
2022-08-26T07:09:12.353Z,100012.88
2022-08-26T07:14:16.411Z,100011.84
2022-08-26T07:19:27.579Z,100011.00
2022-08-26T07:24:35.421Z,100022.75
2022-08-26T07:29:39.533Z,100020.84
2022-08-26T07:34:41.849Z,100015.81
2022-08-26T07:39:44.290Z,100015.81
2022-08-26T07:44:45.928Z,100009.97
2022-08-26T07:49:47.461Z,99998.41
2022-08-26T07:54:56.097Z,100002.09
2022-08-26T07:59:58.337Z,100000.81
2022-08-26T08:04:59.908Z,99998.59
2022-08-26T08:10:01.577Z,100000.03
2022-08-26T08:15:03.493Z,99998.91
2022-08-26T08:20:06.869Z,99990.78
2022-08-26T08:25:10.572Z,99979.16
2022-08-26T08:30:14.072Z,99976.28
2022-08-26T08:35:18.121Z,99971.22
2022-08-26T08:40:20.851Z,99974.38
2022-08-26T08:45:36.604Z,99960.78
2022-08-26T08:50:47.698Z,99949.91
2022-08-26T08:56:17.090Z,99937.69
2022-08-26T09:01:31.177Z,99950.81
2022-08-26T09:06:36.830Z,99951.59
2022-08-26T09:11:43.361Z,99952.84
2022-08-26T09:16:45.123Z,99934.81
2022-08-26T09:21:55.505Z,99931.09
2022-08-26T09:26:59.317Z,99936.16
2022-08-26T09:32:24.189Z,99930.22
2022-08-26T09:37:35.549Z,99932.06
2022-08-26T09:42:37.199Z,99928.31
2022-08-26T09:47:48.083Z,99933.84
2022-08-26T09:53:28.723Z,99923.47
2022-08-26T09:58:35.419Z,99931.94
2022-08-26T10:03:39.650Z,99928.78
2022-08-26T10:08:47.462Z,99905.97
2022-08-26T10:13:58.618Z,99901.31
2022-08-26T10:19:08.645Z,99903.59
2022-08-26T10:24:11.522Z,99911.81
2022-08-26T10:29:20.971Z,99900.91
2022-08-26T10:34:24.282Z,99891.69
2022-08-26T10:39:31.888Z,99880.41
2022-08-26T10:44:35.064Z,99861.38
2022-08-26T10:49:37.313Z,99860.56
2022-08-26T10:54:46.834Z,99879.44
2022-08-26T11:00:44.156Z,99879.81
2022-08-26T11:05:45.881Z,99861.53
2022-08-26T11:10:50.599Z,99856.41
2022-08-26T11:15:52.085Z,99859.19
2022-08-26T11:20:54.411Z,99872.50
2022-08-26T11:25:56.050Z,99876.41
2022-08-26T11:30:58.782Z,99853.59
2022-08-26T11:36:00.605Z,99837.78
2022-08-26T11:41:20.280Z,99821.00
2022-08-26T11:46:27.315Z,99814.72
2022-08-26T11:51:31.591Z,99791.06
2022-08-26T11:56:34.982Z,99785.03
2022-08-26T12:01:49.116Z,99773.31
2022-08-26T12:06:51.664Z,99763.75
2022-08-26T12:12:18.274Z,99763.47
2022-08-26T12:17:27.233Z,99753.88
2022-08-26T12:22:31.123Z,99758.63
2022-08-26T12:27:35.437Z,99749.00
2022-08-26T12:32:57.140Z,99754.41
2022-08-26T12:38:00.081Z,99752.22
2022-08-26T12:43:04.545Z,99746.53
2022-08-26T12:48:10.458Z,99744.63
2022-08-26T12:53:22.560Z,99746.75
2022-08-26T12:58:34.416Z,99744.63
2022-08-26T13:03:40.314Z,99743.81
2022-08-26T13:08:49.343Z,99728.44
2022-08-26T13:14:07.231Z,99733.91
2022-08-26T13:19:12.137Z,99722.41
2022-08-26T13:24:23.139Z,99702.63
2022-08-26T13:29:24.696Z,99715.81
2022-08-26T13:34:27.117Z,99721.47
2022-08-26T13:39:28.855Z,99728.91
2022-08-26T13:44:30.533Z,99740.44
2022-08-26T13:49:32.739Z,99731.69
2022-08-26T13:54:34.392Z,99729.75
2022-08-26T13:59:36.027Z,99720.66
2022-08-26T14:04:38.303Z,99708.03
2022-08-26T14:09:39.929Z,99729.50
2022-08-26T14:14:41.913Z,99729.50
2022-08-26T14:19:45.733Z,99708.31
2022-08-26T14:24:47.405Z,99695.19
2022-08-26T14:29:49.072Z,99695.66
2022-08-26T14:34:51.041Z,99699.84
2022-08-26T14:39:52.792Z,99701.78
2022-08-26T14:44:57.635Z,99682.53
2022-08-26T14:49:59.246Z,99685.84
2022-08-26T14:55:00.871Z,99680.34
2022-08-26T15:00:02.688Z,99686.97
2022-08-26T15:05:05.147Z,99678.44
2022-08-26T15:10:08.517Z,99669.91
2022-08-26T15:15:11.446Z,99674.84
2022-08-26T15:20:13.128Z,99697.97
2022-08-26T15:25:15.407Z,99695.72
2022-08-26T15:30:18.275Z,99692.97
2022-08-26T15:35:19.873Z,99685.81
2022-08-26T15:40:22.095Z,99679.19
2022-08-26T15:45:25.915Z,99677.25
2022-08-26T15:50:29.049Z,99696.75
2022-08-26T15:55:30.646Z,99717.63
2022-08-26T16:00:33.198Z,99713.75
2022-08-26T16:05:39.243Z,99709.66
2022-08-26T16:10:49.208Z,99718.06
2022-08-26T16:15:52.826Z,99736.69
2022-08-26T16:21:08.818Z,99726.25
2022-08-26T16:26:19.206Z,99737.38
2022-08-26T16:31:21.600Z,99748.59
2022-08-26T16:36:23.314Z,99722.09
2022-08-26T16:41:28.355Z,99716.94
2022-08-26T16:46:30.215Z,99712.72
2022-08-26T16:51:32.530Z,99712.03
2022-08-26T16:56:39.576Z,99701.06
2022-08-26T17:01:41.238Z,99709.72
2022-08-26T17:06:42.961Z,99702.72
2022-08-26T17:11:44.681Z,99701.75
2022-08-26T17:16:46.951Z,99709.66
2022-08-26T17:21:48.804Z,99708.25
2022-08-26T17:26:55.526Z,99692.59
2022-08-26T17:31:57.367Z,99676.94
2022-08-26T17:36:59.430Z,99689.97
2022-08-26T17:42:01.027Z,99657.09
2022-08-26T17:47:02.575Z,99658.44
2022-08-26T17:52:07.479Z,99653.16
2022-08-26T17:57:12.592Z,99666.25
2022-08-26T18:02:14.186Z,99682.25
2022-08-26T18:07:16.653Z,99692.84
2022-08-26T18:12:18.257Z,99712.34
2022-08-26T18:17:19.944Z,99707.06
2022-08-26T18:22:23.169Z,99698.59
2022-08-26T18:27:24.737Z,99697.25
2022-08-26T18:32:26.345Z,99689.28
2022-08-26T18:37:30.949Z,99721.28
2022-08-26T18:42:33.610Z,99740.38
2022-08-26T18:47:35.447Z,99744.66
2022-08-26T18:52:37.164Z,99757.31
2022-08-26T18:57:38.755Z,99758.41
2022-08-26T19:02:40.344Z,99740.53
2022-08-26T19:07:42.518Z,99754.97
2022-08-26T19:12:47.274Z,99734.09
2022-08-26T19:17:53.771Z,99744.84
2022-08-26T19:22:57.421Z,99737.66
2022-08-26T19:28:01.234Z,99732.84
2022-08-26T19:33:05.218Z,99739.97
2022-08-26T19:38:07.794Z,99758.00
2022-08-26T19:43:10.628Z,99760.19
2022-08-26T19:48:13.721Z,99730.53
2022-08-26T19:53:15.425Z,99723.28
2022-08-26T19:58:17.000Z,99709.84
2022-08-26T20:03:18.583Z,99690.34
2022-08-26T20:08:22.565Z,99686.09
2022-08-26T20:13:24.346Z,99690.41
2022-08-26T20:18:44.408Z,99708.28
2022-08-26T20:23:45.987Z,99724.34
2022-08-26T20:28:47.678Z,99737.88
2022-08-26T20:33:52.834Z,99742.50
2022-08-26T20:38:55.200Z,99750.78
2022-08-26T20:43:57.418Z,99741.16
2022-08-26T20:48:58.998Z,99717.31
2022-08-26T20:54:02.330Z,99734.97
2022-08-26T20:59:05.450Z,99734.72
2022-08-26T21:04:09.892Z,99728.78
2022-08-26T21:09:12.792Z,99730.78
2022-08-26T21:14:17.289Z,99719.06
2022-08-26T21:19:19.146Z,99720.13
2022-08-26T21:24:21.321Z,99725.25
2022-08-26T21:29:23.254Z,99721.75
2022-08-26T21:34:24.924Z,99739.16
2022-08-26T21:39:26.547Z,99726.03
2022-08-26T21:44:28.195Z,99725.06
2022-08-26T21:49:29.775Z,99718.44
2022-08-26T21:54:32.036Z,99706.03
2022-08-26T21:59:33.797Z,99697.47
2022-08-26T22:04:35.818Z,99701.00
2022-08-26T22:09:37.550Z,99701.91
2022-08-26T22:14:40.941Z,99702.25
2022-08-26T22:19:46.260Z,99708.69
2022-08-26T22:24:48.357Z,99711.31
2022-08-26T22:29:50.756Z,99720.25
2022-08-26T22:34:52.399Z,99710.66
2022-08-26T22:39:54.559Z,99708.81
2022-08-26T22:44:56.225Z,99703.16
2022-08-26T22:49:59.375Z,99700.75
2022-08-26T22:55:00.966Z,99707.69
2022-08-26T23:00:03.150Z,99706.31
2022-08-26T23:05:05.298Z,99713.00
2022-08-26T23:10:08.461Z,99723.91
2022-08-26T23:15:11.786Z,99733.16
2022-08-26T23:20:14.860Z,99736.72
2022-08-26T23:25:17.109Z,99749.53
2022-08-26T23:30:22.485Z,99753.78
2022-08-26T23:35:24.687Z,99750.81
2022-08-26T23:40:32.516Z,99756.66
2022-08-26T23:45:35.013Z,99756.53
2022-08-26T23:50:55.397Z,99757.00
2022-08-26T23:55:57.059Z,99764.94
